Time;durP1;ratioP1;P1;durP2;ratioP2;P2;SDS_P1;SDS_P2;PMS_P1;PMS_P2;Temp;Humidity;BMP_temperature;BMP_pressure;BME280_temperature;BME280_humidity;BME280_pressure;Samples;Min_cycle;Max_cycle;Signal;HPM_P1;HPM_P2
2023/11/19 00:00:25;;;;;;;0.10;0.10;;;10.80;81.20;;;;;;4994484;28;20034;-74
2023/11/19 00:02:50;;;;;;;0.60;0.20;;;10.80;80.80;;;;;;4995538;28;20035;-76
2023/11/19 00:05:16;;;;;;;0.20;0.20;;;10.80;81.10;;;;;;4995253;28;20026;-74
2023/11/19 00:07:42;;;;;;;0.30;0.30;;;10.80;81.40;;;;;;4995513;28;20029;-75
2023/11/19 00:10:11;;;;;;;0.10;0.10;;;10.70;81.70;;;;;;4995338;28;20026;-76
2023/11/19 00:12:41;;;;;;;0.30;0.30;;;10.70;82.20;;;;;;4995424;28;20495;-77
2023/11/19 00:15:11;;;;;;;0.35;0.30;;;10.80;82.50;;;;;;4995461;28;20030;-77
2023/11/19 00:17:40;;;;;;;1.00;0.28;;;10.70;82.90;;;;;;4995351;28;20018;-77
2023/11/19 00:20:07;;;;;;;0.20;0.10;;;10.60;83.50;;;;;;4995275;28;20026;-76
2023/11/19 00:22:33;;;;;;;0.20;0.10;;;10.60;84.00;;;;;;4993979;28;20146;-76
2023/11/19 00:24:59;;;;;;;0.20;0.20;;;10.50;84.40;;;;;;4995252;28;20507;-77
2023/11/19 00:27:25;;;;;;;1.15;0.10;;;10.50;84.80;;;;;;4995167;28;20030;-73
2023/11/19 00:29:51;;;;;;;0.10;0.10;;;10.40;85.20;;;;;;4993877;28;20030;-74
2023/11/19 00:32:16;;;;;;;1.17;0.30;;;10.50;84.60;;;;;;4995095;28;20030;-75
2023/11/19 00:34:47;;;;;;;0.13;0.00;;;10.40;85.00;;;;;;4995080;28;20022;-74
2023/11/19 00:37:13;;;;;;;0.10;0.10;;;10.40;85.00;;;;;;4994946;28;20033;-74
2023/11/19 00:39:39;;;;;;;0.10;0.10;;;10.40;84.90;;;;;;4994921;28;20122;-76
2023/11/19 00:42:05;;;;;;;0.10;0.10;;;10.40;84.90;;;;;;4994908;28;20440;-76
2023/11/19 00:44:31;;;;;;;0.20;0.20;;;10.40;85.20;;;;;;4994832;28;20379;-76
2023/11/19 00:46:56;;;;;;;0.45;0.10;;;10.40;85.50;;;;;;4993509;28;20029;-76
2023/11/19 00:49:22;;;;;;;0.47;0.10;;;10.40;85.50;;;;;;4994576;28;20026;-76
2023/11/19 00:51:48;;;;;;;0.20;0.20;;;10.50;85.70;;;;;;4994453;28;20121;-76
2023/11/19 00:54:14;;;;;;;0.10;0.10;;;10.50;85.80;;;;;;4994770;28;20022;-76
2023/11/19 00:56:39;;;;;;;0.20;0.10;;;10.60;86.00;;;;;;4994175;28;20022;-76
2023/11/19 00:59:05;;;;;;;0.13;0.10;;;10.50;86.10;;;;;;4994112;28;20030;-76
2023/11/19 01:01:31;;;;;;;1.48;0.10;;;10.50;85.70;;;;;;4994362;28;20022;-76
2023/11/19 01:03:59;;;;;;;0.10;0.10;;;10.60;86.20;;;;;;4993962;28;20479;-76
2023/11/19 01:06:31;;;;;;;0.10;0.10;;;10.60;86.20;;;;;;4994417;28;20472;-76
2023/11/19 01:08:57;;;;;;;0.10;0.10;;;10.70;86.60;;;;;;4994275;28;20111;-76
2023/11/19 01:11:23;;;;;;;0.10;0.10;;;10.70;86.00;;;;;;4994180;28;20062;-76
2023/11/19 01:13:49;;;;;;;0.10;0.10;;;10.80;86.00;;;;;;4994142;28;20037;-75
2023/11/19 01:16:15;;;;;;;0.00;0.00;;;10.70;86.30;;;;;;4993878;28;20014;-76
2023/11/19 01:18:41;;;;;;;0.25;0.17;;;10.90;86.00;;;;;;4994061;28;20030;-76
2023/11/19 01:21:07;;;;;;;0.43;0.30;;;10.80;85.80;;;;;;4994032;28;20031;-76
2023/11/19 01:23:33;;;;;;;0.20;0.17;;;10.80;86.20;;;;;;4992721;28;20038;-76
2023/11/19 01:25:58;;;;;;;3.15;1.98;;;10.80;86.40;;;;;;4994012;28;20037;-76
2023/11/19 01:28:24;;;;;;;1.70;1.30;;;10.80;86.40;;;;;;4992684;28;20475;-76
2023/11/19 01:30:52;;;;;;;0.20;0.10;;;10.90;86.80;;;;;;4994012;28;20125;-76
2023/11/19 01:33:18;;;;;;;0.43;0.10;;;10.80;87.10;;;;;;4993818;28;20053;-76
2023/11/19 01:35:44;;;;;;;0.38;0.10;;;10.90;87.10;;;;;;4992523;28;20061;-76
2023/11/19 01:38:10;;;;;;;0.10;0.10;;;10.90;87.20;;;;;;4993624;28;20033;-76
2023/11/19 01:40:36;;;;;;;0.80;0.10;;;10.90;87.00;;;;;;4993766;28;20022;-76
2023/11/19 01:43:02;;;;;;;0.45;0.20;;;10.90;86.60;;;;;;4993776;28;20030;-76
2023/11/19 01:45:32;;;;;;;0.30;0.20;;;10.90;87.00;;;;;;4993755;28;20353;-76
2023/11/19 01:48:00;;;;;;;0.35;0.13;;;11.00;86.90;;;;;;4993593;28;20109;-76
2023/11/19 01:50:26;;;;;;;0.40;0.13;;;10.90;87.00;;;;;;4993368;28;20132;-75
2023/11/19 01:52:57;;;;;;;0.60;0.28;;;11.00;87.40;;;;;;4993516;28;20084;-76
2023/11/19 01:55:24;;;;;;;0.10;0.10;;;11.00;87.00;;;;;;4993476;28;20027;-76
2023/11/19 01:57:51;;;;;;;0.55;0.20;;;11.10;86.60;;;;;;4993488;28;20026;-76
2023/11/19 02:00:19;;;;;;;0.52;0.10;;;11.10;87.00;;;;;;4993477;28;20033;-76
2023/11/19 02:02:46;;;;;;;1.45;0.10;;;11.10;86.60;;;;;;4993375;28;20052;-76
2023/11/19 02:05:13;;;;;;;0.10;0.10;;;11.20;87.50;;;;;;4993438;28;20027;-76
2023/11/19 02:07:39;;;;;;;0.40;0.15;;;11.20;87.10;;;;;;4992820;28;20191;-76
2023/11/19 02:10:05;;;;;;;0.55;0.10;;;11.10;87.70;;;;;;4993356;28;20033;-75
2023/11/19 02:12:35;;;;;;;1.15;0.05;;;11.10;87.90;;;;;;4993428;28;20026;-75
2023/11/19 02:15:02;;;;;;;3.75;0.10;;;11.10;87.90;;;;;;4992468;28;20116;-75
2023/11/19 02:17:31;;;;;;;0.20;0.10;;;11.20;87.20;;;;;;4993429;28;20022;-76
2023/11/19 02:19:58;;;;;;;0.20;0.08;;;11.20;87.50;;;;;;4993414;28;20029;-76
2023/11/19 02:22:24;;;;;;;0.20;0.10;;;11.20;87.70;;;;;;4993233;28;20084;-76
2023/11/19 02:24:54;;;;;;;0.10;0.10;;;11.20;87.60;;;;;;4993312;28;20395;-76
2023/11/19 02:28:00;;;;;;;0.32;0.10;;;11.20;87.60;;;;;;4993200;28;20094;-76
2023/11/19 02:30:26;;;;;;;0.98;0.20;;;11.20;87.60;;;;;;4991091;28;20129;-76
2023/11/19 02:32:58;;;;;;;0.22;0.10;;;11.30;87.20;;;;;;4993342;28;20134;-76
2023/11/19 02:35:28;;;;;;;0.05;0.00;;;11.30;87.40;;;;;;4993169;28;20018;-76
2023/11/19 02:37:57;;;;;;;0.52;0.15;;;11.30;86.80;;;;;;4992980;28;20062;-76
2023/11/19 02:40:24;;;;;;;0.35;0.28;;;11.30;87.10;;;;;;4993259;28;20026;-76
2023/11/19 02:42:50;;;;;;;0.60;0.50;;;11.30;87.20;;;;;;4993069;28;20031;-75
2023/11/19 02:45:16;;;;;;;0.17;0.10;;;11.30;87.00;;;;;;4993291;28;20057;-76
2023/11/19 02:47:42;;;;;;;0.30;0.30;;;11.30;86.80;;;;;;4993191;28;20054;-77
2023/11/19 02:50:15;;;;;;;0.55;0.00;;;11.40;86.80;;;;;;4993077;28;20196;-77
2023/11/19 02:52:45;;;;;;;0.00;0.00;;;11.40;86.90;;;;;;4993142;28;20065;-76
2023/11/19 02:55:14;;;;;;;1.83;0.22;;;11.30;87.00;;;;;;4993188;28;20033;-77
2023/11/19 02:57:46;;;;;;;0.15;0.08;;;11.40;87.20;;;;;;4993149;28;20098;-76
2023/11/19 03:00:16;;;;;;;1.48;0.08;;;11.40;87.10;;;;;;4993077;28;20497;-77
2023/11/19 03:02:45;;;;;;;0.10;0.03;;;11.40;87.00;;;;;;4992889;28;20033;-76
2023/11/19 03:05:16;;;;;;;0.05;0.03;;;11.30;86.80;;;;;;4992980;28;20390;-75
2023/11/19 03:07:46;;;;;;;0.08;0.08;;;11.40;86.90;;;;;;4993005;28;20015;-75
2023/11/19 03:10:14;;;;;;;0.10;0.10;;;11.40;87.10;;;;;;4992824;28;20030;-76
2023/11/19 03:12:41;;;;;;;0.85;0.00;;;11.40;87.10;;;;;;4992990;28;20475;-76
2023/11/19 03:15:09;;;;;;;0.15;0.10;;;11.40;86.70;;;;;;4992847;28;20054;-75
2023/11/19 03:17:42;;;;;;;1.35;0.10;;;11.40;86.90;;;;;;4992845;28;20065;-76
2023/11/19 03:20:10;;;;;;;0.22;0.10;;;11.40;87.10;;;;;;4995110;28;20101;-76
2023/11/19 03:22:38;;;;;;;0.30;0.00;;;11.40;86.50;;;;;;4996544;28;20038;-76
2023/11/19 03:25:04;;;;;;;0.20;0.10;;;11.40;86.60;;;;;;4996731;28;20057;-76
2023/11/19 03:27:30;;;;;;;0.20;0.03;;;11.30;87.10;;;;;;4996353;28;20521;-76
2023/11/19 03:29:55;;;;;;;0.00;0.00;;;11.30;86.90;;;;;;4996809;28;20113;-76
2023/11/19 03:32:21;;;;;;;0.20;0.20;;;11.30;87.00;;;;;;4997442;28;20049;-76
2023/11/19 03:34:47;;;;;;;0.00;0.00;;;11.30;87.60;;;;;;5002091;28;20046;-76
2023/11/19 03:37:16;;;;;;;0.00;0.00;;;11.30;87.10;;;;;;4999557;28;20022;-76
2023/11/19 03:39:42;;;;;;;0.03;0.00;;;11.30;86.70;;;;;;4996067;28;20029;-76
2023/11/19 03:42:07;;;;;;;1.45;0.10;;;11.30;86.90;;;;;;4995934;28;20034;-75
2023/11/19 03:44:33;;;;;;;0.20;0.20;;;11.30;87.00;;;;;;4995801;28;20041;-75
2023/11/19 03:46:58;;;;;;;0.45;0.30;;;11.30;87.00;;;;;;4995926;28;20065;-75
2023/11/19 03:49:24;;;;;;;0.03;0.00;;;11.30;87.40;;;;;;4995884;28;20030;-75
2023/11/19 03:51:49;;;;;;;0.25;0.00;;;11.40;86.90;;;;;;4994331;28;20125;-75
2023/11/19 03:54:15;;;;;;;0.30;0.00;;;11.40;86.20;;;;;;4995802;28;20022;-74
2023/11/19 03:56:40;;;;;;;0.20;0.00;;;11.40;86.30;;;;;;4995567;28;20042;-74
2023/11/19 03:59:06;;;;;;;0.15;0.10;;;11.40;86.50;;;;;;4995659;28;20026;-74
2023/11/19 04:01:31;;;;;;;0.20;0.00;;;11.50;86.20;;;;;;4995606;28;20034;-74
2023/11/19 04:03:57;;;;;;;0.00;0.00;;;11.50;85.80;;;;;;4995341;28;20479;-74
2023/11/19 04:06:22;;;;;;;0.75;0.00;;;11.50;86.00;;;;;;4995465;28;20081;-74
2023/11/19 04:08:49;;;;;;;0.03;0.00;;;11.50;86.30;;;;;;4995476;28;20106;-75
2023/11/19 04:11:14;;;;;;;0.55;0.00;;;11.50;86.40;;;;;;4995402;28;20019;-75
2023/11/19 04:13:40;;;;;;;0.00;0.00;;;11.50;86.30;;;;;;4995404;28;20038;-74
2023/11/19 04:16:06;;;;;;;0.00;0.00;;;11.50;86.20;;;;;;4995332;28;20022;-74
2023/11/19 04:18:32;;;;;;;0.00;0.00;;;11.50;86.10;;;;;;4995262;28;20018;-74
2023/11/19 04:20:57;;;;;;;0.22;0.10;;;11.50;85.70;;;;;;4995309;28;20081;-75
2023/11/19 04:23:24;;;;;;;1.45;0.00;;;11.60;86.10;;;;;;4995078;28;20049;-74
2023/11/19 04:25:50;;;;;;;0.08;0.00;;;11.50;86.20;;;;;;4993931;28;20026;-74
2023/11/19 04:28:16;;;;;;;0.00;0.00;;;11.50;86.00;;;;;;4995085;28;20522;-75
2023/11/19 04:30:41;;;;;;;0.43;0.00;;;11.50;86.40;;;;;;4994546;28;20034;-75
2023/11/19 04:33:07;;;;;;;0.00;0.00;;;11.60;85.60;;;;;;4994820;28;20089;-75
2023/11/19 04:35:32;;;;;;;0.00;0.00;;;11.60;85.50;;;;;;4994709;28;20064;-75
2023/11/19 04:37:58;;;;;;;0.00;0.00;;;11.60;85.40;;;;;;4993403;28;20061;-75
2023/11/19 04:40:23;;;;;;;0.45;0.00;;;11.60;85.50;;;;;;4994945;28;20026;-74
2023/11/19 04:42:50;;;;;;;0.00;0.00;;;11.50;85.70;;;;;;4994970;28;20050;-74
2023/11/19 04:45:16;;;;;;;0.00;0.00;;;11.60;85.10;;;;;;4994850;28;20109;-74
2023/11/19 04:47:42;;;;;;;0.00;0.00;;;11.60;85.10;;;;;;4994780;28;20037;-75
2023/11/19 04:50:10;;;;;;;0.08;0.00;;;11.60;84.70;;;;;;4994500;28;20038;-74
2023/11/19 04:52:40;;;;;;;0.00;0.00;;;11.60;85.60;;;;;;4994538;28;20585;-74
2023/11/19 04:55:06;;;;;;;0.03;0.03;;;11.60;85.00;;;;;;4994520;28;20027;-74
2023/11/19 04:57:32;;;;;;;0.00;0.00;;;11.60;85.00;;;;;;4994436;28;20029;-74
2023/11/19 04:59:58;;;;;;;0.00;0.00;;;11.60;84.90;;;;;;4994433;28;20109;-73
2023/11/19 05:02:24;;;;;;;0.00;0.00;;;11.60;85.20;;;;;;4994240;28;20122;-74
2023/11/19 05:04:49;;;;;;;0.00;0.00;;;11.60;84.90;;;;;;4994452;28;20395;-74
2023/11/19 05:07:15;;;;;;;0.00;0.00;;;11.70;84.50;;;;;;4994325;28;20022;-74
2023/11/19 05:09:40;;;;;;;0.10;0.00;;;11.70;84.50;;;;;;4994300;28;20491;-74
2023/11/19 05:12:09;;;;;;;0.00;0.00;;;11.70;84.40;;;;;;4994086;28;20149;-74
2023/11/19 05:14:35;;;;;;;0.10;0.00;;;11.70;84.60;;;;;;4994233;28;20014;-74
2023/11/19 05:17:00;;;;;;;0.00;0.00;;;11.70;84.50;;;;;;4992949;28;20403;-73
2023/11/19 05:19:26;;;;;;;0.20;0.00;;;11.90;83.90;;;;;;4994154;28;20029;-75
2023/11/19 05:21:52;;;;;;;0.10;0.10;;;11.90;83.80;;;;;;4994161;28;20518;-74
2023/11/19 05:24:18;;;;;;;0.45;0.00;;;11.90;84.00;;;;;;4993913;28;20427;-74
2023/11/19 05:26:43;;;;;;;0.03;0.00;;;11.80;84.30;;;;;;4993932;28;20105;-74
2023/11/19 05:29:09;;;;;;;1.05;0.10;;;11.80;84.90;;;;;;4994023;28;20105;-74
2023/11/19 05:31:34;;;;;;;0.08;0.03;;;11.80;85.50;;;;;;4994065;28;20030;-74
2023/11/19 05:34:00;;;;;;;0.08;0.08;;;11.70;85.80;;;;;;4994141;28;20030;-74
2023/11/19 05:36:26;;;;;;;0.00;0.00;;;11.70;86.20;;;;;;4994097;28;20030;-74
2023/11/19 05:38:51;;;;;;;0.57;0.17;;;11.70;86.20;;;;;;4992718;28;20058;-74
2023/11/19 05:41:17;;;;;;;0.20;0.20;;;11.60;86.20;;;;;;4998342;28;20029;-74
2023/11/19 05:43:42;;;;;;;0.30;0.00;;;11.60;86.50;;;;;;4994571;28;20038;-74
2023/11/19 05:46:08;;;;;;;0.77;0.10;;;11.60;86.70;;;;;;4993455;28;20023;-74
2023/11/19 05:48:34;;;;;;;0.32;0.20;;;11.60;87.10;;;;;;4993469;28;20023;-76
2023/11/19 05:51:00;;;;;;;0.22;0.05;;;11.50;87.90;;;;;;4993184;28;20073;-74
2023/11/19 05:53:25;;;;;;;1.08;0.10;;;11.40;88.20;;;;;;4993852;28;20027;-74
2023/11/19 05:55:57;;;;;;;0.05;0.05;;;11.50;88.30;;;;;;4993781;28;20026;-74
2023/11/19 05:58:28;;;;;;;0.20;0.05;;;11.60;87.50;;;;;;4993800;28;20075;-74
2023/11/19 06:00:57;;;;;;;0.20;0.10;;;11.60;87.50;;;;;;4993911;28;20033;-75
2023/11/19 06:03:23;;;;;;;1.02;0.10;;;11.60;87.50;;;;;;4993627;28;20084;-74
2023/11/19 06:05:49;;;;;;;1.55;0.03;;;11.50;88.20;;;;;;4993900;28;20202;-74
2023/11/19 06:08:16;;;;;;;0.00;0.00;;;11.50;88.70;;;;;;4993980;28;20435;-75
2023/11/19 06:10:42;;;;;;;0.45;0.00;;;11.50;88.50;;;;;;4993585;28;20023;-74
2023/11/19 06:13:10;;;;;;;0.20;0.00;;;11.40;88.30;;;;;;4993595;28;20022;-74
2023/11/19 06:15:36;;;;;;;0.80;0.10;;;11.50;88.10;;;;;;4993747;28;20030;-74
2023/11/19 06:18:03;;;;;;;0.10;0.03;;;11.50;87.70;;;;;;4993642;28;20053;-74
2023/11/19 06:20:33;;;;;;;0.20;0.03;;;11.50;87.50;;;;;;4993527;28;20018;-74
2023/11/19 06:22:59;;;;;;;0.15;0.08;;;11.50;86.90;;;;;;4993320;28;20077;-75
2023/11/19 06:25:25;;;;;;;0.20;0.10;;;11.70;86.70;;;;;;4993431;28;20026;-75
2023/11/19 06:27:51;;;;;;;0.55;0.20;;;11.70;86.50;;;;;;4992190;28;20026;-74
2023/11/19 06:30:17;;;;;;;0.17;0.10;;;11.70;85.90;;;;;;4993524;28;20471;-77
2023/11/19 06:32:45;;;;;;;1.25;0.10;;;11.70;85.80;;;;;;4993427;28;20041;-77
2023/11/19 06:35:10;;;;;;;0.95;0.10;;;11.80;85.40;;;;;;4993466;28;20023;-74
2023/11/19 06:37:38;;;;;;;1.45;0.20;;;11.80;85.10;;;;;;4992050;28;20037;-74
2023/11/19 06:40:05;;;;;;;0.20;0.20;;;11.90;85.20;;;;;;4993211;28;20023;-76
2023/11/19 06:42:31;;;;;;;0.20;0.10;;;11.80;85.30;;;;;;4993160;28;20023;-77
2023/11/19 06:44:59;;;;;;;0.30;0.30;;;11.90;84.90;;;;;;4993223;28;20057;-74
2023/11/19 06:47:27;;;;;;;0.30;0.20;;;11.90;84.70;;;;;;4993596;28;20457;-76
2023/11/19 06:49:53;;;;;;;0.20;0.20;;;11.90;85.20;;;;;;4992983;28;20030;-76
2023/11/19 06:52:19;;;;;;;0.22;0.20;;;11.90;84.80;;;;;;4991789;28;20037;-76
2023/11/19 06:54:45;;;;;;;0.10;0.00;;;11.90;84.70;;;;;;4994794;28;20022;-76
2023/11/19 06:57:11;;;;;;;0.60;0.20;;;12.00;84.60;;;;;;4996851;28;20054;-75
2023/11/19 06:59:38;;;;;;;0.10;0.10;;;12.00;84.50;;;;;;4996900;28;20069;-76
2023/11/19 07:02:04;;;;;;;0.10;0.10;;;12.00;84.70;;;;;;4996988;28;20100;-75
2023/11/19 07:04:30;;;;;;;0.50;0.25;;;12.00;84.50;;;;;;5000679;28;20034;-75
2023/11/19 07:06:56;;;;;;;0.73;0.20;;;12.00;84.70;;;;;;4998882;28;20033;-78
2023/11/19 07:09:23;;;;;;;0.50;0.50;;;12.00;84.50;;;;;;4996728;28;20124;-76
2023/11/19 07:11:51;;;;;;;0.75;0.20;;;12.00;84.50;;;;;;4997043;28;20418;-76
2023/11/19 07:14:17;;;;;;;1.52;0.60;;;12.10;84.30;;;;;;4995539;28;20076;-76
2023/11/19 07:16:44;;;;;;;0.90;0.32;;;12.10;84.10;;;;;;4995491;28;20022;-76
2023/11/19 07:19:09;;;;;;;2.03;0.30;;;12.10;84.30;;;;;;4995484;28;20057;-76
2023/11/19 07:21:39;;;;;;;0.63;0.28;;;12.10;84.10;;;;;;4995517;28;20049;-76
2023/11/19 07:24:05;;;;;;;0.35;0.28;;;12.10;83.90;;;;;;4995479;28;20132;-76
2023/11/19 07:26:31;;;;;;;1.55;0.17;;;12.20;83.70;;;;;;4995348;28;20027;-77
2023/11/19 07:28:57;;;;;;;0.10;0.10;;;12.20;83.60;;;;;;4995507;28;20033;-76
2023/11/19 07:31:23;;;;;;;0.20;0.20;;;12.20;83.00;;;;;;4995268;28;20050;-75
2023/11/19 07:33:49;;;;;;;0.43;0.20;;;12.20;82.80;;;;;;4995289;28;20112;-75
2023/11/19 07:36:15;;;;;;;0.73;0.20;;;12.30;83.00;;;;;;4996587;28;20062;-76
2023/11/19 07:38:41;;;;;;;0.55;0.22;;;12.30;82.60;;;;;;4995281;28;20467;-76
2023/11/19 07:41:06;;;;;;;0.77;0.20;;;12.40;82.20;;;;;;4995189;28;20113;-76
2023/11/19 07:43:37;;;;;;;0.82;0.22;;;12.40;82.30;;;;;;4998832;28;20034;-77
2023/11/19 07:46:04;;;;;;;1.20;0.40;;;12.30;82.40;;;;;;4996719;28;20023;-77
2023/11/19 07:48:30;;;;;;;0.77;0.20;;;12.30;82.60;;;;;;4994718;28;20034;-74
2023/11/19 07:50:55;;;;;;;0.50;0.10;;;12.30;82.20;;;;;;4994736;28;20447;-75
2023/11/19 07:53:21;;;;;;;0.20;0.20;;;12.50;81.80;;;;;;4994621;28;20026;-76
2023/11/19 07:55:47;;;;;;;0.80;0.52;;;12.50;81.60;;;;;;4994315;28;20081;-76
2023/11/19 07:58:12;;;;;;;0.85;0.47;;;12.50;81.50;;;;;;4994842;28;20026;-76
2023/11/19 08:00:38;;;;;;;1.00;0.22;;;12.60;81.20;;;;;;4994781;28;20353;-76
2023/11/19 08:03:05;;;;;;;0.75;0.28;;;12.60;80.90;;;;;;4994624;28;20042;-77
2023/11/19 08:05:31;;;;;;;0.45;0.20;;;12.60;81.40;;;;;;4993446;28;20424;-78
2023/11/19 08:07:58;;;;;;;0.35;0.30;;;12.60;81.10;;;;;;4994400;28;20190;-76
2023/11/19 08:10:24;;;;;;;0.20;0.20;;;12.60;81.10;;;;;;4994519;28;20057;-77
2023/11/19 08:12:49;;;;;;;0.73;0.50;;;12.60;80.70;;;;;;4994245;28;20058;-75
2023/11/19 08:15:15;;;;;;;1.40;0.45;;;12.70;82.10;;;;;;4994528;28;20022;-75
2023/11/19 08:17:42;;;;;;;1.10;0.40;;;12.70;81.50;;;;;;4978260;28;20030;-77
2023/11/19 08:20:11;;;;;;;0.73;0.10;;;12.60;81.10;;;;;;4994319;28;20026;-76
2023/11/19 08:22:37;;;;;;;0.45;0.22;;;12.70;80.90;;;;;;4994376;28;20018;-77
2023/11/19 08:25:06;;;;;;;0.65;0.30;;;12.70;80.50;;;;;;4994268;28;20463;-76
2023/11/19 08:27:35;;;;;;;0.22;0.20;;;12.80;80.50;;;;;;4996146;28;20033;-77
2023/11/19 08:30:00;;;;;;;0.73;0.35;;;12.80;80.20;;;;;;4994576;28;20085;-77
2023/11/19 08:32:27;;;;;;;0.93;0.40;;;12.80;80.60;;;;;;4994014;28;20026;-77
2023/11/19 08:34:53;;;;;;;0.35;0.35;;;12.80;80.30;;;;;;4994125;28;20038;-77
2023/11/19 08:37:20;;;;;;;0.80;0.20;;;12.80;80.50;;;;;;4994156;28;20598;-76
2023/11/19 08:39:48;;;;;;;0.28;0.25;;;12.70;80.50;;;;;;4993977;28;20030;-77
2023/11/19 08:42:14;;;;;;;3.92;0.90;;;12.70;80.40;;;;;;4994066;28;20395;-76
2023/11/19 08:44:43;;;;;;;1.85;0.30;;;12.70;80.30;;;;;;4993350;28;20069;-76
2023/11/19 08:47:09;;;;;;;1.42;0.20;;;12.70;80.40;;;;;;4993813;28;20022;-77
2023/11/19 08:49:35;;;;;;;0.88;0.43;;;12.80;79.80;;;;;;4993857;28;20089;-74
2023/11/19 08:52:00;;;;;;;0.50;0.30;;;12.80;79.70;;;;;;4993762;28;20558;-74
2023/11/19 08:54:26;;;;;;;0.90;0.65;;;12.80;79.60;;;;;;4994058;28;20041;-78
2023/11/19 08:56:52;;;;;;;0.85;0.40;;;12.80;79.60;;;;;;4994411;28;20033;-80
2023/11/19 08:59:38;;;;;;;0.93;0.68;;;12.90;79.70;;;;;;4980299;28;20033;-80
2023/11/19 09:02:06;;;;;;;1.25;0.30;;;12.90;79.50;;;;;;4995227;28;20517;-80
2023/11/19 09:04:34;;;;;;;0.55;0.40;;;12.90;79.50;;;;;;4994544;28;20045;-82
2023/11/19 09:06:59;;;;;;;0.40;0.30;;;12.90;79.80;;;;;;4978267;28;20061;-77
2023/11/19 09:09:41;;;;;;;0.35;0.35;;;12.90;79.80;;;;;;4993889;28;20046;-79
2023/11/19 09:12:07;;;;;;;0.68;0.50;;;12.90;79.50;;;;;;4993518;28;20026;-79
2023/11/19 09:14:36;;;;;;;1.70;1.00;;;13.00;79.50;;;;;;4993540;28;20352;-78
2023/11/19 09:17:02;;;;;;;1.25;1.15;;;13.10;79.10;;;;;;4993065;28;20026;-79
2023/11/19 09:19:27;;;;;;;0.80;0.60;;;13.20;79.00;;;;;;4993599;28;20144;-77
2023/11/19 09:21:53;;;;;;;1.45;0.30;;;13.40;78.20;;;;;;4994638;28;20027;-75
2023/11/19 09:24:19;;;;;;;0.88;0.30;;;13.50;77.10;;;;;;4993907;28;20092;-78
2023/11/19 09:26:45;;;;;;;0.50;0.25;;;13.60;76.20;;;;;;4993816;28;20054;-76
2023/11/19 09:29:11;;;;;;;0.47;0.38;;;13.60;76.00;;;;;;4994424;28;20030;-75
2023/11/19 09:31:38;;;;;;;1.13;0.30;;;13.70;75.50;;;;;;4993353;28;20467;-76
2023/11/19 09:34:04;;;;;;;0.82;0.20;;;13.90;74.80;;;;;;4993203;28;20045;-75
2023/11/19 09:36:29;;;;;;;0.45;0.32;;;14.00;74.80;;;;;;4977100;28;20395;-76
2023/11/19 09:38:55;;;;;;;0.93;0.30;;;14.20;74.00;;;;;;4994279;28;20022;-77
2023/11/19 09:41:21;;;;;;;0.43;0.20;;;14.50;72.40;;;;;;4994530;28;20029;-76
2023/11/19 09:43:47;;;;;;;0.93;0.80;;;14.50;72.00;;;;;;4993324;28;20042;-77
2023/11/19 09:46:15;;;;;;;1.17;0.32;;;14.50;72.20;;;;;;4999887;28;20030;-78
2023/11/19 09:48:42;;;;;;;0.65;0.30;;;14.40;72.90;;;;;;4993163;28;20026;-77
2023/11/19 09:51:08;;;;;;;0.40;0.20;;;14.30;72.70;;;;;;4993114;28;20050;-77
2023/11/19 09:53:36;;;;;;;1.23;0.50;;;14.20;73.10;;;;;;4993581;28;20113;-75
2023/11/19 09:56:03;;;;;;;0.65;0.40;;;14.10;73.40;;;;;;4993172;28;20022;-77
2023/11/19 09:58:31;;;;;;;0.60;0.40;;;14.10;73.70;;;;;;4994096;28;20376;-77
2023/11/19 10:00:59;;;;;;;2.45;0.50;;;14.20;72.90;;;;;;4993778;28;20112;-76
2023/11/19 10:03:26;;;;;;;2.47;0.63;;;14.50;72.80;;;;;;4993856;28;20110;-76
2023/11/19 10:05:54;;;;;;;1.38;0.35;;;14.70;71.50;;;;;;4992257;28;20050;-75
2023/11/19 10:08:20;;;;;;;0.73;0.50;;;14.80;70.60;;;;;;4993657;28;20038;-77
2023/11/19 10:10:47;;;;;;;0.95;0.40;;;15.20;70.00;;;;;;4993659;28;20018;-77
2023/11/19 10:13:14;;;;;;;1.08;0.38;;;15.50;68.60;;;;;;4993763;28;20429;-77
2023/11/19 10:15:40;;;;;;;0.50;0.30;;;15.60;67.50;;;;;;4993806;28;20033;-75
2023/11/19 10:18:06;;;;;;;0.40;0.32;;;15.70;67.40;;;;;;4993767;28;20035;-75
2023/11/19 10:20:40;;;;;;;0.28;0.15;;;15.40;67.30;;;;;;4993781;28;20026;-75
2023/11/19 10:23:05;;;;;;;0.45;0.30;;;15.10;67.90;;;;;;4992381;28;20030;-75
2023/11/19 10:25:33;;;;;;;0.35;0.20;;;15.20;68.10;;;;;;4992285;28;20041;-75
2023/11/19 10:27:59;;;;;;;1.83;0.30;;;15.20;68.60;;;;;;4993701;28;20475;-76
2023/11/19 10:30:26;;;;;;;3.03;0.30;;;15.20;68.90;;;;;;4995269;28;20030;-76
2023/11/19 10:33:06;;;;;;;0.30;0.20;;;15.30;67.90;;;;;;4997506;28;20027;-75
2023/11/19 10:35:36;;;;;;;3.53;0.25;;;15.70;66.80;;;;;;4996144;28;20387;-75
2023/11/19 10:38:17;;;;;;;0.20;0.20;;;15.90;66.00;;;;;;4996672;28;20018;-76
2023/11/19 10:40:43;;;;;;;3.15;0.30;;;15.90;64.70;;;;;;4996309;28;20022;-76
2023/11/19 10:43:08;;;;;;;0.13;0.13;;;16.10;64.50;;;;;;4996215;28;20040;-76
2023/11/19 10:45:35;;;;;;;2.75;0.30;;;15.90;65.30;;;;;;4980189;28;20093;-77
2023/11/19 10:48:06;;;;;;;1.70;0.30;;;15.80;64.80;;;;;;4996190;28;20045;-77
2023/11/19 10:50:33;;;;;;;0.98;0.50;;;15.50;67.20;;;;;;4996090;28;20511;-77
2023/11/19 10:53:00;;;;;;;0.75;0.25;;;15.20;68.30;;;;;;4996567;28;20026;-76
2023/11/19 10:55:28;;;;;;;2.00;0.38;;;15.10;68.80;;;;;;4996239;28;20085;-76
2023/11/19 10:58:07;;;;;;;1.35;0.75;;;14.90;69.60;;;;;;4995587;28;20026;-74
2023/11/19 11:01:02;;;;;;;0.47;0.35;;;15.00;68.90;;;;;;4995824;28;20058;-76
2023/11/19 11:03:39;;;;;;;0.20;0.20;;;14.90;69.50;;;;;;4996740;28;20101;-76
2023/11/19 11:06:05;;;;;;;1.80;0.40;;;14.80;70.20;;;;;;4998807;28;20030;-77
2023/11/19 11:08:31;;;;;;;0.73;0.38;;;14.80;70.40;;;;;;4996644;28;20037;-76
2023/11/19 11:10:59;;;;;;;0.60;0.25;;;14.90;70.20;;;;;;4995656;28;20026;-77
2023/11/19 11:13:29;;;;;;;1.13;0.30;;;15.00;70.00;;;;;;4996731;28;20022;-77
2023/11/19 11:15:57;;;;;;;1.05;0.40;;;15.20;69.40;;;;;;4996661;28;20022;-77
2023/11/19 11:18:25;;;;;;;1.00;0.28;;;15.30;68.60;;;;;;4995838;28;20034;-77
2023/11/19 11:21:03;;;;;;;2.28;0.47;;;15.20;68.80;;;;;;4979156;28;20040;-77
2023/11/19 11:23:56;;;;;;;0.40;0.17;;;15.20;69.00;;;;;;4993707;28;20034;-77
2023/11/19 11:26:27;;;;;;;0.45;0.20;;;14.90;70.10;;;;;;4995548;28;20092;-75
2023/11/19 11:29:20;;;;;;;0.20;0.20;;;14.70;71.10;;;;;;4995162;28;20026;-77
2023/11/19 11:32:13;;;;;;;2.25;0.60;;;14.50;71.70;;;;;;4995162;28;20022;-75
2023/11/19 11:34:57;;;;;;;1.02;0.30;;;14.30;72.40;;;;;;4995309;28;20023;-76
2023/11/19 11:37:36;;;;;;;0.90;0.60;;;14.20;73.50;;;;;;4995442;28;20076;-77
2023/11/19 11:40:10;;;;;;;0.57;0.50;;;14.20;73.20;;;;;;4996473;28;20037;-77
2023/11/19 11:42:37;;;;;;;1.25;0.93;;;14.10;73.50;;;;;;4994094;28;20030;-77
2023/11/19 11:45:08;;;;;;;0.57;0.40;;;14.10;74.30;;;;;;4995035;28;20387;-77
2023/11/19 11:47:54;;;;;;;0.98;0.50;;;14.30;74.00;;;;;;4994925;28;20084;-77
2023/11/19 11:50:21;;;;;;;1.40;0.80;;;14.40;73.60;;;;;;4994920;28;20109;-77
2023/11/19 11:53:05;;;;;;;0.65;0.50;;;14.60;73.20;;;;;;4995214;28;20018;-77
2023/11/19 11:55:54;;;;;;;0.90;0.50;;;15.40;69.40;;;;;;4996280;28;20027;-77
2023/11/19 11:58:21;;;;;;;0.20;0.20;;;15.40;70.30;;;;;;4995192;28;20030;-76
2023/11/19 12:00:48;;;;;;;1.98;0.35;;;16.20;66.20;;;;;;4994896;28;20030;-77
2023/11/19 12:03:14;;;;;;;0.30;0.20;;;16.50;65.00;;;;;;4995098;28;20034;-84
2023/11/19 12:05:45;;;;;;;0.30;0.30;;;16.80;64.00;;;;;;4996363;28;20049;-78
2023/11/19 12:08:14;;;;;;;1.13;0.85;;;16.60;63.90;;;;;;4994349;28;20023;-77
2023/11/19 12:10:48;;;;;;;2.72;0.85;;;17.20;61.80;;;;;;4995774;28;20487;-77
2023/11/19 12:13:18;;;;;;;2.67;0.90;;;17.00;62.30;;;;;;4994272;28;20030;-77
2023/11/19 12:15:56;;;;;;;2.67;0.95;;;18.30;58.30;;;;;;4994758;28;20019;-79
2023/11/19 12:18:31;;;;;;;3.00;0.82;;;18.30;57.50;;;;;;4994562;28;20034;-75
2023/11/19 12:21:00;;;;;;;2.05;0.90;;;17.40;59.20;;;;;;4994643;28;20468;-77
2023/11/19 12:23:26;;;;;;;1.40;0.70;;;16.80;61.20;;;;;;4994361;28;20034;-78
2023/11/19 12:25:52;;;;;;;0.43;0.43;;;16.10;63.80;;;;;;4995800;28;20085;-77
2023/11/19 12:28:18;;;;;;;1.40;0.60;;;15.60;66.00;;;;;;4999518;28;20125;-75
2023/11/19 12:30:45;;;;;;;2.15;1.10;;;15.30;67.50;;;;;;4995548;28;20026;-72
2023/11/19 12:33:12;;;;;;;1.80;0.80;;;15.20;68.40;;;;;;4994614;28;20026;-77
2023/11/19 12:35:42;;;;;;;1.13;0.63;;;15.00;69.30;;;;;;4994422;28;20121;-77
2023/11/19 12:38:17;;;;;;;1.80;0.80;;;14.80;70.40;;;;;;5002992;28;20026;-75
2023/11/19 12:40:46;;;;;;;1.40;1.10;;;14.80;70.30;;;;;;4994441;28;20482;-74
2023/11/19 12:43:22;;;;;;;1.83;0.77;;;14.70;71.00;;;;;;4994030;28;20380;-78
2023/11/19 12:45:48;;;;;;;0.77;0.70;;;14.60;69.80;;;;;;4995588;28;20026;-76
2023/11/19 12:48:13;;;;;;;4.97;1.05;;;14.40;69.20;;;;;;4995493;28;20029;-81
2023/11/19 12:50:57;;;;;;;7.55;4.97;;;14.50;70.30;;;;;;4995080;28;20530;-88